sensor_id;sensor_type;location;lat;lon;timestamp;P1;durP1;ratioP1;P2;durP2;ratioP2
40204;SDS011;26963;42.666;23.366;2023-10-31T00:02:09;9.73;;;4.45;;
40204;SDS011;26963;42.666;23.366;2023-10-31T00:04:35;6.85;;;4.10;;
40204;SDS011;26963;42.666;23.366;2023-10-31T00:07:00;9.80;;;4.40;;
40204;SDS011;26963;42.666;23.366;2023-10-31T00:09:26;10.30;;;4.78;;
40204;SDS011;26963;42.666;23.366;2023-10-31T00:11:51;10.15;;;4.40;;
40204;SDS011;26963;42.666;23.366;2023-10-31T00:14:17;8.32;;;4.65;;
40204;SDS011;26963;42.666;23.366;2023-10-31T00:16:42;9.65;;;4.88;;
40204;SDS011;26963;42.666;23.366;2023-10-31T00:19:08;13.55;;;4.40;;
40204;SDS011;26963;42.666;23.366;2023-10-31T00:21:34;8.20;;;4.28;;
40204;SDS011;26963;42.666;23.366;2023-10-31T00:24:00;11.35;;;4.50;;
40204;SDS011;26963;42.666;23.366;2023-10-31T00:26:25;10.40;;;5.18;;
40204;SDS011;26963;42.666;23.366;2023-10-31T00:28:51;9.20;;;4.90;;
40204;SDS011;26963;42.666;23.366;2023-10-31T00:31:16;11.60;;;5.20;;
40204;SDS011;26963;42.666;23.366;2023-10-31T00:33:42;10.15;;;5.13;;
40204;SDS011;26963;42.666;23.366;2023-10-31T00:36:08;10.23;;;5.32;;
40204;SDS011;26963;42.666;23.366;2023-10-31T00:38:34;8.80;;;5.40;;
40204;SDS011;26963;42.666;23.366;2023-10-31T00:41:02;8.60;;;4.70;;
40204;SDS011;26963;42.666;23.366;2023-10-31T00:43:28;9.48;;;4.70;;
40204;SDS011;26963;42.666;23.366;2023-10-31T00:45:53;9.65;;;5.00;;
40204;SDS011;26963;42.666;23.366;2023-10-31T00:48:19;9.35;;;4.95;;
40204;SDS011;26963;42.666;23.366;2023-10-31T00:50:45;9.00;;;4.57;;
40204;SDS011;26963;42.666;23.366;2023-10-31T00:53:10;9.68;;;5.43;;
40204;SDS011;26963;42.666;23.366;2023-10-31T00:55:36;10.98;;;4.82;;
40204;SDS011;26963;42.666;23.366;2023-10-31T00:58:02;9.88;;;4.75;;
40204;SDS011;26963;42.666;23.366;2023-10-31T01:00:28;7.70;;;4.70;;
40204;SDS011;26963;42.666;23.366;2023-10-31T01:02:53;10.30;;;4.43;;
40204;SDS011;26963;42.666;23.366;2023-10-31T01:05:19;7.57;;;4.22;;
40204;SDS011;26963;42.666;23.366;2023-10-31T01:07:45;10.13;;;4.72;;
40204;SDS011;26963;42.666;23.366;2023-10-31T01:10:10;6.97;;;3.92;;
40204;SDS011;26963;42.666;23.366;2023-10-31T01:12:36;6.75;;;4.00;;
40204;SDS011;26963;42.666;23.366;2023-10-31T01:15:02;7.95;;;3.88;;
40204;SDS011;26963;42.666;23.366;2023-10-31T01:17:28;10.30;;;4.13;;
40204;SDS011;26963;42.666;23.366;2023-10-31T01:19:54;7.63;;;3.95;;
40204;SDS011;26963;42.666;23.366;2023-10-31T01:22:20;7.72;;;3.95;;
40204;SDS011;26963;42.666;23.366;2023-10-31T01:24:45;10.43;;;4.18;;
40204;SDS011;26963;42.666;23.366;2023-10-31T01:27:11;8.05;;;4.07;;
40204;SDS011;26963;42.666;23.366;2023-10-31T01:29:36;9.07;;;4.20;;
40204;SDS011;26963;42.666;23.366;2023-10-31T01:32:02;7.20;;;3.97;;
40204;SDS011;26963;42.666;23.366;2023-10-31T01:34:28;6.60;;;3.78;;
40204;SDS011;26963;42.666;23.366;2023-10-31T01:36:53;8.98;;;3.78;;
40204;SDS011;26963;42.666;23.366;2023-10-31T01:39:19;9.02;;;3.50;;
40204;SDS011;26963;42.666;23.366;2023-10-31T01:41:44;9.05;;;4.20;;
40204;SDS011;26963;42.666;23.366;2023-10-31T01:44:10;8.00;;;4.00;;
40204;SDS011;26963;42.666;23.366;2023-10-31T01:46:36;8.98;;;4.22;;
40204;SDS011;26963;42.666;23.366;2023-10-31T01:49:02;8.63;;;4.10;;
40204;SDS011;26963;42.666;23.366;2023-10-31T01:51:28;7.43;;;4.22;;
40204;SDS011;26963;42.666;23.366;2023-10-31T01:53:55;9.05;;;3.78;;
40204;SDS011;26963;42.666;23.366;2023-10-31T01:56:21;7.03;;;4.18;;
40204;SDS011;26963;42.666;23.366;2023-10-31T01:58:48;9.52;;;4.15;;
40204;SDS011;26963;42.666;23.366;2023-10-31T02:01:14;8.82;;;3.90;;
40204;SDS011;26963;42.666;23.366;2023-10-31T02:03:40;9.27;;;4.22;;
40204;SDS011;26963;42.666;23.366;2023-10-31T02:06:05;8.00;;;3.78;;
40204;SDS011;26963;42.666;23.366;2023-10-31T02:08:31;7.07;;;4.03;;
40204;SDS011;26963;42.666;23.366;2023-10-31T02:10:57;5.65;;;3.58;;
40204;SDS011;26963;42.666;23.366;2023-10-31T02:13:23;6.25;;;3.78;;
40204;SDS011;26963;42.666;23.366;2023-10-31T02:15:48;7.93;;;3.90;;
40204;SDS011;26963;42.666;23.366;2023-10-31T02:18:15;5.50;;;3.67;;
40204;SDS011;26963;42.666;23.366;2023-10-31T02:20:41;6.85;;;3.42;;
40204;SDS011;26963;42.666;23.366;2023-10-31T02:23:07;7.28;;;3.92;;
40204;SDS011;26963;42.666;23.366;2023-10-31T02:25:32;6.85;;;3.20;;
40204;SDS011;26963;42.666;23.366;2023-10-31T02:27:58;6.82;;;3.42;;
40204;SDS011;26963;42.666;23.366;2023-10-31T02:30:24;8.55;;;3.85;;
40204;SDS011;26963;42.666;23.366;2023-10-31T02:32:50;5.63;;;3.15;;
40204;SDS011;26963;42.666;23.366;2023-10-31T02:35:16;7.30;;;3.38;;
40204;SDS011;26963;42.666;23.366;2023-10-31T02:37:45;11.02;;;3.80;;
40204;SDS011;26963;42.666;23.366;2023-10-31T02:40:11;6.20;;;3.10;;
40204;SDS011;26963;42.666;23.366;2023-10-31T02:42:38;6.05;;;3.33;;
40204;SDS011;26963;42.666;23.366;2023-10-31T02:45:03;8.68;;;3.63;;
40204;SDS011;26963;42.666;23.366;2023-10-31T02:47:31;8.52;;;3.85;;
40204;SDS011;26963;42.666;23.366;2023-10-31T02:49:57;4.70;;;3.20;;
40204;SDS011;26963;42.666;23.366;2023-10-31T02:52:22;7.38;;;3.42;;
40204;SDS011;26963;42.666;23.366;2023-10-31T02:54:48;6.35;;;3.33;;
40204;SDS011;26963;42.666;23.366;2023-10-31T02:57:14;5.97;;;3.33;;
40204;SDS011;26963;42.666;23.366;2023-10-31T02:59:40;6.10;;;3.33;;
40204;SDS011;26963;42.666;23.366;2023-10-31T03:02:06;5.50;;;3.20;;
40204;SDS011;26963;42.666;23.366;2023-10-31T03:04:31;6.00;;;3.25;;
40204;SDS011;26963;42.666;23.366;2023-10-31T03:06:57;6.80;;;3.67;;
40204;SDS011;26963;42.666;23.366;2023-10-31T03:09:22;7.28;;;3.13;;
40204;SDS011;26963;42.666;23.366;2023-10-31T03:11:48;5.78;;;3.40;;
40204;SDS011;26963;42.666;23.366;2023-10-31T03:14:13;6.63;;;3.35;;
40204;SDS011;26963;42.666;23.366;2023-10-31T03:16:39;7.38;;;3.38;;
40204;SDS011;26963;42.666;23.366;2023-10-31T03:19:05;6.13;;;3.20;;
40204;SDS011;26963;42.666;23.366;2023-10-31T03:21:31;6.78;;;3.38;;
40204;SDS011;26963;42.666;23.366;2023-10-31T03:23:57;8.13;;;3.67;;
40204;SDS011;26963;42.666;23.366;2023-10-31T03:26:22;6.78;;;3.45;;
40204;SDS011;26963;42.666;23.366;2023-10-31T03:28:48;8.77;;;3.30;;
40204;SDS011;26963;42.666;23.366;2023-10-31T03:31:14;6.63;;;3.47;;
40204;SDS011;26963;42.666;23.366;2023-10-31T03:33:40;6.22;;;3.60;;
40204;SDS011;26963;42.666;23.366;2023-10-31T03:36:07;7.03;;;3.20;;
40204;SDS011;26963;42.666;23.366;2023-10-31T03:38:33;7.70;;;3.88;;
40204;SDS011;26963;42.666;23.366;2023-10-31T03:41:02;9.50;;;4.00;;
40204;SDS011;26963;42.666;23.366;2023-10-31T03:43:28;7.40;;;4.05;;
40204;SDS011;26963;42.666;23.366;2023-10-31T03:45:54;6.00;;;3.65;;
40204;SDS011;26963;42.666;23.366;2023-10-31T03:48:20;8.25;;;3.58;;
40204;SDS011;26963;42.666;23.366;2023-10-31T03:50:46;7.15;;;3.50;;
40204;SDS011;26963;42.666;23.366;2023-10-31T03:53:12;9.48;;;4.07;;
40204;SDS011;26963;42.666;23.366;2023-10-31T03:55:37;6.47;;;3.65;;
40204;SDS011;26963;42.666;23.366;2023-10-31T03:58:03;8.05;;;3.47;;
40204;SDS011;26963;42.666;23.366;2023-10-31T04:00:32;7.68;;;3.60;;
40204;SDS011;26963;42.666;23.366;2023-10-31T04:02:57;10.00;;;4.15;;
40204;SDS011;26963;42.666;23.366;2023-10-31T04:05:23;6.35;;;3.50;;
40204;SDS011;26963;42.666;23.366;2023-10-31T04:07:49;5.53;;;3.30;;
40204;SDS011;26963;42.666;23.366;2023-10-31T04:10:15;8.85;;;3.60;;
40204;SDS011;26963;42.666;23.366;2023-10-31T04:12:41;6.78;;;3.40;;
40204;SDS011;26963;42.666;23.366;2023-10-31T04:15:07;6.53;;;3.90;;
40204;SDS011;26963;42.666;23.366;2023-10-31T04:17:34;6.03;;;3.65;;
40204;SDS011;26963;42.666;23.366;2023-10-31T04:20:01;5.38;;;3.65;;
40204;SDS011;26963;42.666;23.366;2023-10-31T04:22:27;6.45;;;3.58;;
40204;SDS011;26963;42.666;23.366;2023-10-31T04:24:52;7.22;;;3.75;;
40204;SDS011;26963;42.666;23.366;2023-10-31T04:27:18;7.63;;;3.85;;
40204;SDS011;26963;42.666;23.366;2023-10-31T04:29:44;6.15;;;3.67;;
40204;SDS011;26963;42.666;23.366;2023-10-31T04:32:10;7.45;;;3.97;;
40204;SDS011;26963;42.666;23.366;2023-10-31T04:34:35;7.82;;;3.95;;
40204;SDS011;26963;42.666;23.366;2023-10-31T04:37:01;7.25;;;3.92;;
40204;SDS011;26963;42.666;23.366;2023-10-31T04:39:27;6.20;;;3.45;;
40204;SDS011;26963;42.666;23.366;2023-10-31T04:41:52;6.75;;;3.65;;
40204;SDS011;26963;42.666;23.366;2023-10-31T04:44:18;6.68;;;3.50;;
40204;SDS011;26963;42.666;23.366;2023-10-31T04:46:44;8.25;;;3.33;;
40204;SDS011;26963;42.666;23.366;2023-10-31T04:49:09;7.55;;;3.63;;
40204;SDS011;26963;42.666;23.366;2023-10-31T04:51:35;5.97;;;3.83;;
40204;SDS011;26963;42.666;23.366;2023-10-31T04:54:02;12.23;;;4.97;;
40204;SDS011;26963;42.666;23.366;2023-10-31T04:56:28;6.93;;;4.40;;
40204;SDS011;26963;42.666;23.366;2023-10-31T04:58:53;7.97;;;4.60;;
40204;SDS011;26963;42.666;23.366;2023-10-31T05:01:19;9.30;;;4.43;;
40204;SDS011;26963;42.666;23.366;2023-10-31T05:03:45;6.95;;;3.75;;
40204;SDS011;26963;42.666;23.366;2023-10-31T05:06:10;7.88;;;4.22;;
40204;SDS011;26963;42.666;23.366;2023-10-31T05:08:36;7.32;;;4.03;;
40204;SDS011;26963;42.666;23.366;2023-10-31T05:11:01;6.97;;;4.18;;
40204;SDS011;26963;42.666;23.366;2023-10-31T05:13:27;8.02;;;4.28;;
40204;SDS011;26963;42.666;23.366;2023-10-31T05:15:53;9.20;;;4.50;;
40204;SDS011;26963;42.666;23.366;2023-10-31T05:18:19;6.25;;;3.90;;
40204;SDS011;26963;42.666;23.366;2023-10-31T05:20:45;9.15;;;4.15;;
40204;SDS011;26963;42.666;23.366;2023-10-31T05:23:10;10.43;;;4.20;;
40204;SDS011;26963;42.666;23.366;2023-10-31T05:25:36;11.18;;;4.95;;
40204;SDS011;26963;42.666;23.366;2023-10-31T05:28:02;8.30;;;5.03;;
40204;SDS011;26963;42.666;23.366;2023-10-31T05:30:28;11.73;;;6.72;;
40204;SDS011;26963;42.666;23.366;2023-10-31T05:32:57;11.48;;;4.88;;
40204;SDS011;26963;42.666;23.366;2023-10-31T05:35:22;9.82;;;4.70;;
40204;SDS011;26963;42.666;23.366;2023-10-31T05:37:48;8.82;;;4.68;;
40204;SDS011;26963;42.666;23.366;2023-10-31T05:40:14;10.65;;;5.63;;
40204;SDS011;26963;42.666;23.366;2023-10-31T05:42:41;12.05;;;5.82;;
40204;SDS011;26963;42.666;23.366;2023-10-31T05:45:07;15.57;;;9.73;;
40204;SDS011;26963;42.666;23.366;2023-10-31T05:47:33;10.40;;;6.28;;
40204;SDS011;26963;42.666;23.366;2023-10-31T05:49:59;10.27;;;6.28;;
40204;SDS011;26963;42.666;23.366;2023-10-31T05:52:28;16.55;;;7.20;;
40204;SDS011;26963;42.666;23.366;2023-10-31T05:54:55;15.18;;;7.53;;
40204;SDS011;26963;42.666;23.366;2023-10-31T05:57:20;12.57;;;5.57;;
40204;SDS011;26963;42.666;23.366;2023-10-31T05:59:46;15.48;;;6.85;;
40204;SDS011;26963;42.666;23.366;2023-10-31T06:02:12;14.95;;;6.25;;
40204;SDS011;26963;42.666;23.366;2023-10-31T06:04:41;20.08;;;8.68;;
40204;SDS011;26963;42.666;23.366;2023-10-31T06:07:06;17.35;;;8.10;;
40204;SDS011;26963;42.666;23.366;2023-10-31T06:09:32;16.00;;;9.98;;
40204;SDS011;26963;42.666;23.366;2023-10-31T06:11:59;16.90;;;10.25;;
40204;SDS011;26963;42.666;23.366;2023-10-31T06:14:25;20.83;;;9.75;;
40204;SDS011;26963;42.666;23.366;2023-10-31T06:16:51;15.63;;;9.27;;
40204;SDS011;26963;42.666;23.366;2023-10-31T06:19:16;16.75;;;9.10;;
40204;SDS011;26963;42.666;23.366;2023-10-31T06:21:45;19.13;;;9.38;;
40204;SDS011;26963;42.666;23.366;2023-10-31T06:24:11;13.90;;;7.03;;
40204;SDS011;26963;42.666;23.366;2023-10-31T06:26:36;25.75;;;9.45;;
40204;SDS011;26963;42.666;23.366;2023-10-31T06:29:02;16.77;;;9.48;;
40204;SDS011;26963;42.666;23.366;2023-10-31T06:31:28;16.70;;;9.40;;
40204;SDS011;26963;42.666;23.366;2023-10-31T06:33:54;18.45;;;8.80;;
40204;SDS011;26963;42.666;23.366;2023-10-31T06:36:19;15.73;;;8.88;;
40204;SDS011;26963;42.666;23.366;2023-10-31T06:38:45;13.95;;;8.70;;
40204;SDS011;26963;42.666;23.366;2023-10-31T06:41:11;17.33;;;9.15;;
40204;SDS011;26963;42.666;23.366;2023-10-31T06:43:37;18.25;;;9.73;;
40204;SDS011;26963;42.666;23.366;2023-10-31T06:46:02;17.92;;;11.00;;
40204;SDS011;26963;42.666;23.366;2023-10-31T06:48:30;20.15;;;12.63;;
40204;SDS011;26963;42.666;23.366;2023-10-31T06:50:55;15.35;;;10.10;;
40204;SDS011;26963;42.666;23.366;2023-10-31T06:53:21;18.08;;;9.95;;
40204;SDS011;26963;42.666;23.366;2023-10-31T06:55:46;17.02;;;9.73;;
40204;SDS011;26963;42.666;23.366;2023-10-31T06:58:12;15.20;;;7.72;;
40204;SDS011;26963;42.666;23.366;2023-10-31T07:00:38;10.77;;;6.72;;
40204;SDS011;26963;42.666;23.366;2023-10-31T07:03:04;11.95;;;6.10;;
40204;SDS011;26963;42.666;23.366;2023-10-31T07:05:34;10.88;;;6.53;;
40204;SDS011;26963;42.666;23.366;2023-10-31T07:08:01;12.95;;;6.60;;
40204;SDS011;26963;42.666;23.366;2023-10-31T07:10:28;13.38;;;7.07;;
40204;SDS011;26963;42.666;23.366;2023-10-31T07:12:54;14.98;;;6.85;;
40204;SDS011;26963;42.666;23.366;2023-10-31T07:15:19;16.23;;;7.45;;
40204;SDS011;26963;42.666;23.366;2023-10-31T07:17:46;12.05;;;6.88;;
40204;SDS011;26963;42.666;23.366;2023-10-31T07:20:12;13.18;;;6.68;;
40204;SDS011;26963;42.666;23.366;2023-10-31T07:22:39;13.00;;;6.35;;
40204;SDS011;26963;42.666;23.366;2023-10-31T07:25:05;13.57;;;7.25;;
40204;SDS011;26963;42.666;23.366;2023-10-31T07:27:31;14.27;;;7.72;;
40204;SDS011;26963;42.666;23.366;2023-10-31T07:29:57;12.85;;;6.47;;
40204;SDS011;26963;42.666;23.366;2023-10-31T07:32:22;15.25;;;7.00;;
40204;SDS011;26963;42.666;23.366;2023-10-31T07:34:48;11.80;;;6.38;;
40204;SDS011;26963;42.666;23.366;2023-10-31T07:37:13;16.13;;;7.20;;
40204;SDS011;26963;42.666;23.366;2023-10-31T07:39:39;13.27;;;6.95;;
40204;SDS011;26963;42.666;23.366;2023-10-31T07:42:05;12.93;;;7.22;;
40204;SDS011;26963;42.666;23.366;2023-10-31T07:44:31;13.35;;;6.43;;
40204;SDS011;26963;42.666;23.366;2023-10-31T07:46:57;15.57;;;6.25;;
40204;SDS011;26963;42.666;23.366;2023-10-31T07:49:22;11.30;;;5.93;;
40204;SDS011;26963;42.666;23.366;2023-10-31T07:51:48;11.75;;;5.60;;
40204;SDS011;26963;42.666;23.366;2023-10-31T07:54:14;8.82;;;5.80;;
40204;SDS011;26963;42.666;23.366;2023-10-31T07:56:41;8.82;;;5.50;;
40204;SDS011;26963;42.666;23.366;2023-10-31T07:59:06;16.30;;;6.03;;
40204;SDS011;26963;42.666;23.366;2023-10-31T08:01:33;12.38;;;6.00;;
40204;SDS011;26963;42.666;23.366;2023-10-31T08:03:59;10.70;;;5.85;;
40204;SDS011;26963;42.666;23.366;2023-10-31T08:06:24;13.10;;;5.82;;
40204;SDS011;26963;42.666;23.366;2023-10-31T08:08:50;14.43;;;6.28;;
40204;SDS011;26963;42.666;23.366;2023-10-31T08:11:16;12.23;;;5.60;;
40204;SDS011;26963;42.666;23.366;2023-10-31T08:13:44;12.52;;;5.40;;
40204;SDS011;26963;42.666;23.366;2023-10-31T08:16:10;8.68;;;4.90;;
40204;SDS011;26963;42.666;23.366;2023-10-31T08:18:36;12.52;;;5.35;;
40204;SDS011;26963;42.666;23.366;2023-10-31T08:21:02;12.00;;;5.25;;
40204;SDS011;26963;42.666;23.366;2023-10-31T08:23:29;11.68;;;5.30;;
40204;SDS011;26963;42.666;23.366;2023-10-31T08:25:55;13.07;;;5.80;;
40204;SDS011;26963;42.666;23.366;2023-10-31T08:28:21;11.15;;;5.20;;
40204;SDS011;26963;42.666;23.366;2023-10-31T08:30:46;11.23;;;5.72;;
40204;SDS011;26963;42.666;23.366;2023-10-31T08:33:12;11.25;;;4.68;;
40204;SDS011;26963;42.666;23.366;2023-10-31T08:35:39;12.23;;;6.00;;
40204;SDS011;26963;42.666;23.366;2023-10-31T08:38:04;10.70;;;5.30;;
40204;SDS011;26963;42.666;23.366;2023-10-31T08:40:30;10.02;;;4.22;;
40204;SDS011;26963;42.666;23.366;2023-10-31T08:42:55;8.27;;;5.00;;
40204;SDS011;26963;42.666;23.366;2023-10-31T08:45:22;10.90;;;4.97;;
40204;SDS011;26963;42.666;23.366;2023-10-31T08:47:47;12.60;;;5.10;;
40204;SDS011;26963;42.666;23.366;2023-10-31T08:50:13;9.85;;;5.80;;
40204;SDS011;26963;42.666;23.366;2023-10-31T08:52:39;10.50;;;5.18;;
40204;SDS011;26963;42.666;23.366;2023-10-31T08:55:05;12.52;;;5.05;;
40204;SDS011;26963;42.666;23.366;2023-10-31T08:57:31;9.48;;;5.30;;
40204;SDS011;26963;42.666;23.366;2023-10-31T08:59:58;9.45;;;4.63;;
40204;SDS011;26963;42.666;23.366;2023-10-31T09:02:24;12.68;;;4.70;;
40204;SDS011;26963;42.666;23.366;2023-10-31T09:04:50;8.95;;;5.00;;
40204;SDS011;26963;42.666;23.366;2023-10-31T09:07:15;10.02;;;4.63;;
40204;SDS011;26963;42.666;23.366;2023-10-31T09:09:41;13.52;;;5.05;;
40204;SDS011;26963;42.666;23.366;2023-10-31T09:12:07;9.38;;;4.35;;
40204;SDS011;26963;42.666;23.366;2023-10-31T09:14:33;10.20;;;4.53;;
40204;SDS011;26963;42.666;23.366;2023-10-31T09:16:58;9.32;;;4.32;;
40204;SDS011;26963;42.666;23.366;2023-10-31T09:19:24;11.10;;;4.30;;
40204;SDS011;26963;42.666;23.366;2023-10-31T09:21:49;11.77;;;5.35;;
40204;SDS011;26963;42.666;23.366;2023-10-31T09:24:15;13.43;;;5.40;;
40204;SDS011;26963;42.666;23.366;2023-10-31T09:26:41;12.90;;;6.53;;
40204;SDS011;26963;42.666;23.366;2023-10-31T09:29:08;11.85;;;5.57;;
40204;SDS011;26963;42.666;23.366;2023-10-31T09:31:35;12.68;;;5.10;;
40204;SDS011;26963;42.666;23.366;2023-10-31T09:34:01;10.23;;;4.78;;
40204;SDS011;26963;42.666;23.366;2023-10-31T09:36:28;9.93;;;5.40;;
40204;SDS011;26963;42.666;23.366;2023-10-31T09:38:57;12.95;;;6.10;;
40204;SDS011;26963;42.666;23.366;2023-10-31T09:41:22;14.52;;;5.97;;
40204;SDS011;26963;42.666;23.366;2023-10-31T09:43:48;14.98;;;6.32;;
40204;SDS011;26963;42.666;23.366;2023-10-31T09:46:15;14.82;;;6.30;;
40204;SDS011;26963;42.666;23.366;2023-10-31T09:48:42;12.13;;;6.07;;
40204;SDS011;26963;42.666;23.366;2023-10-31T09:51:08;9.45;;;5.40;;
40204;SDS011;26963;42.666;23.366;2023-10-31T09:53:37;12.88;;;5.93;;
40204;SDS011;26963;42.666;23.366;2023-10-31T09:56:06;14.50;;;8.30;;
40204;SDS011;26963;42.666;23.366;2023-10-31T09:58:33;19.98;;;10.05;;
40204;SDS011;26963;42.666;23.366;2023-10-31T10:00:59;24.38;;;17.42;;
40204;SDS011;26963;42.666;23.366;2023-10-31T10:03:25;14.00;;;8.35;;
40204;SDS011;26963;42.666;23.366;2023-10-31T10:05:52;12.68;;;5.65;;
40204;SDS011;26963;42.666;23.366;2023-10-31T10:08:18;13.68;;;6.78;;
40204;SDS011;26963;42.666;23.366;2023-10-31T10:10:44;17.40;;;9.75;;
40204;SDS011;26963;42.666;23.366;2023-10-31T10:13:10;11.35;;;6.13;;
40204;SDS011;26963;42.666;23.366;2023-10-31T10:15:47;13.55;;;5.25;;
40204;SDS011;26963;42.666;23.366;2023-10-31T10:21:01;11.57;;;4.95;;
40204;SDS011;26963;42.666;23.366;2023-10-31T10:23:28;13.25;;;6.78;;
40204;SDS011;26963;42.666;23.366;2023-10-31T10:25:55;13.70;;;4.65;;
40204;SDS011;26963;42.666;23.366;2023-10-31T10:28:22;14.48;;;4.53;;
40204;SDS011;26963;42.666;23.366;2023-10-31T10:30:50;10.52;;;4.45;;
40204;SDS011;26963;42.666;23.366;2023-10-31T10:33:16;11.70;;;3.92;;
40204;SDS011;26963;42.666;23.366;2023-10-31T10:35:43;9.93;;;4.38;;
40204;SDS011;26963;42.666;23.366;2023-10-31T10:38:13;13.77;;;4.63;;
40204;SDS011;26963;42.666;23.366;2023-10-31T10:40:40;10.48;;;4.60;;
40204;SDS011;26963;42.666;23.366;2023-10-31T10:43:11;11.02;;;5.57;;
40204;SDS011;26963;42.666;23.366;2023-10-31T10:45:40;14.82;;;4.75;;
40204;SDS011;26963;42.666;23.366;2023-10-31T10:48:10;10.90;;;4.80;;
40204;SDS011;26963;42.666;23.366;2023-10-31T10:50:41;11.27;;;4.53;;
40204;SDS011;26963;42.666;23.366;2023-10-31T10:53:16;14.23;;;5.88;;
40204;SDS011;26963;42.666;23.366;2023-10-31T10:55:57;10.40;;;5.25;;
40204;SDS011;26963;42.666;23.366;2023-10-31T10:58:33;12.40;;;5.53;;
40204;SDS011;26963;42.666;23.366;2023-10-31T11:01:02;10.55;;;4.78;;
40204;SDS011;26963;42.666;23.366;2023-10-31T11:03:29;10.13;;;4.53;;
40204;SDS011;26963;42.666;23.366;2023-10-31T11:05:56;12.15;;;4.53;;
40204;SDS011;26963;42.666;23.366;2023-10-31T11:08:23;10.25;;;4.30;;
40204;SDS011;26963;42.666;23.366;2023-10-31T11:10:50;7.93;;;4.90;;
40204;SDS011;26963;42.666;23.366;2023-10-31T11:13:16;13.10;;;4.93;;
40204;SDS011;26963;42.666;23.366;2023-10-31T11:15:42;14.18;;;6.53;;
40204;SDS011;26963;42.666;23.366;2023-10-31T11:18:09;9.45;;;4.38;;
40204;SDS011;26963;42.666;23.366;2023-10-31T11:20:37;11.65;;;4.22;;
40204;SDS011;26963;42.666;23.366;2023-10-31T11:23:06;10.35;;;4.32;;
40204;SDS011;26963;42.666;23.366;2023-10-31T11:25:32;11.13;;;4.28;;
40204;SDS011;26963;42.666;23.366;2023-10-31T11:28:10;12.52;;;4.82;;
40204;SDS011;26963;42.666;23.366;2023-10-31T11:30:43;10.98;;;3.40;;
40204;SDS011;26963;42.666;23.366;2023-10-31T11:33:13;13.98;;;4.03;;
40204;SDS011;26963;42.666;23.366;2023-10-31T11:35:41;12.03;;;4.30;;
40204;SDS011;26963;42.666;23.366;2023-10-31T11:38:10;11.00;;;4.20;;
40204;SDS011;26963;42.666;23.366;2023-10-31T11:40:59;14.27;;;4.47;;
40204;SDS011;26963;42.666;23.366;2023-10-31T11:44:12;9.63;;;3.70;;
40204;SDS011;26963;42.666;23.366;2023-10-31T11:46:22;10.02;;;3.88;;
40204;SDS011;26963;42.666;23.366;2023-10-31T11:48:52;13.55;;;3.90;;
40204;SDS011;26963;42.666;23.366;2023-10-31T11:51:19;15.82;;;4.00;;
40204;SDS011;26963;42.666;23.366;2023-10-31T11:53:45;11.95;;;4.47;;
40204;SDS011;26963;42.666;23.366;2023-10-31T11:56:11;9.70;;;4.05;;
40204;SDS011;26963;42.666;23.366;2023-10-31T11:58:36;12.48;;;3.83;;
40204;SDS011;26963;42.666;23.366;2023-10-31T12:01:07;7.93;;;3.95;;
40204;SDS011;26963;42.666;23.366;2023-10-31T12:03:41;12.73;;;4.68;;
40204;SDS011;26963;42.666;23.366;2023-10-31T12:06:08;12.45;;;4.95;;
40204;SDS011;26963;42.666;23.366;2023-10-31T12:08:35;11.63;;;4.82;;
40204;SDS011;26963;42.666;23.366;2023-10-31T12:13:38;10.48;;;4.55;;
40204;SDS011;26963;42.666;23.366;2023-10-31T12:16:06;7.10;;;3.80;;
40204;SDS011;26963;42.666;23.366;2023-10-31T12:18:33;11.68;;;3.92;;
40204;SDS011;26963;42.666;23.366;2023-10-31T12:21:00;15.40;;;3.88;;
40204;SDS011;26963;42.666;23.366;2023-10-31T12:23:26;10.68;;;4.47;;
40204;SDS011;26963;42.666;23.366;2023-10-31T12:25:52;8.95;;;4.35;;
40204;SDS011;26963;42.666;23.366;2023-10-31T12:28:19;11.77;;;4.47;;
40204;SDS011;26963;42.666;23.366;2023-10-31T12:30:46;12.25;;;4.07;;
40204;SDS011;26963;42.666;23.366;2023-10-31T12:33:13;10.27;;;4.30;;
40204;SDS011;26963;42.666;23.366;2023-10-31T12:35:39;12.02;;;4.82;;
40204;SDS011;26963;42.666;23.366;2023-10-31T12:38:05;12.10;;;4.50;;
40204;SDS011;26963;42.666;23.366;2023-10-31T12:40:32;16.20;;;7.90;;
40204;SDS011;26963;42.666;23.366;2023-10-31T12:42:59;20.48;;;13.55;;
40204;SDS011;26963;42.666;23.366;2023-10-31T12:45:26;15.25;;;6.88;;
40204;SDS011;26963;42.666;23.366;2023-10-31T12:48:13;13.25;;;4.53;;
40204;SDS011;26963;42.666;23.366;2023-10-31T12:50:38;7.03;;;3.92;;
40204;SDS011;26963;42.666;23.366;2023-10-31T12:53:09;13.32;;;3.60;;
40204;SDS011;26963;42.666;23.366;2023-10-31T12:55:38;9.15;;;3.55;;
40204;SDS011;26963;42.666;23.366;2023-10-31T12:58:05;9.70;;;3.47;;
40204;SDS011;26963;42.666;23.366;2023-10-31T13:00:32;9.77;;;3.83;;
40204;SDS011;26963;42.666;23.366;2023-10-31T13:03:06;11.32;;;5.90;;
40204;SDS011;26963;42.666;23.366;2023-10-31T13:05:34;10.68;;;4.63;;
40204;SDS011;26963;42.666;23.366;2023-10-31T13:08:01;13.63;;;5.10;;
40204;SDS011;26963;42.666;23.366;2023-10-31T13:10:29;9.63;;;3.83;;
40204;SDS011;26963;42.666;23.366;2023-10-31T13:12:59;10.15;;;3.58;;
40204;SDS011;26963;42.666;23.366;2023-10-31T13:15:25;11.20;;;3.97;;
40204;SDS011;26963;42.666;23.366;2023-10-31T13:17:52;13.23;;;4.32;;
40204;SDS011;26963;42.666;23.366;2023-10-31T13:20:20;10.38;;;4.00;;
40204;SDS011;26963;42.666;23.366;2023-10-31T13:22:46;11.32;;;4.22;;
40204;SDS011;26963;42.666;23.366;2023-10-31T13:25:13;10.77;;;3.58;;
40204;SDS011;26963;42.666;23.366;2023-10-31T13:27:41;7.38;;;4.45;;
40204;SDS011;26963;42.666;23.366;2023-10-31T13:30:09;8.60;;;3.80;;
40204;SDS011;26963;42.666;23.366;2023-10-31T13:32:40;12.55;;;3.85;;
40204;SDS011;26963;42.666;23.366;2023-10-31T13:35:06;10.25;;;3.92;;
40204;SDS011;26963;42.666;23.366;2023-10-31T13:37:34;12.15;;;3.75;;
40204;SDS011;26963;42.666;23.366;2023-10-31T13:40:00;9.55;;;3.42;;
40204;SDS011;26963;42.666;23.366;2023-10-31T13:42:26;7.72;;;3.50;;
40204;SDS011;26963;42.666;23.366;2023-10-31T13:44:55;10.40;;;3.85;;
40204;SDS011;26963;42.666;23.366;2023-10-31T13:47:21;10.93;;;4.50;;
40204;SDS011;26963;42.666;23.366;2023-10-31T13:49:46;13.38;;;5.30;;
40204;SDS011;26963;42.666;23.366;2023-10-31T13:52:12;9.50;;;3.83;;
40204;SDS011;26963;42.666;23.366;2023-10-31T13:54:37;11.05;;;6.03;;
40204;SDS011;26963;42.666;23.366;2023-10-31T13:57:03;10.52;;;4.20;;
40204;SDS011;26963;42.666;23.366;2023-10-31T13:59:31;10.93;;;4.22;;
40204;SDS011;26963;42.666;23.366;2023-10-31T14:01:57;8.50;;;4.13;;
40204;SDS011;26963;42.666;23.366;2023-10-31T14:04:22;10.18;;;4.47;;
40204;SDS011;26963;42.666;23.366;2023-10-31T14:06:48;17.40;;;4.28;;
40204;SDS011;26963;42.666;23.366;2023-10-31T14:09:16;11.07;;;4.13;;
40204;SDS011;26963;42.666;23.366;2023-10-31T14:11:42;11.43;;;5.60;;
40204;SDS011;26963;42.666;23.366;2023-10-31T14:14:08;17.90;;;8.10;;
40204;SDS011;26963;42.666;23.366;2023-10-31T14:16:44;18.15;;;6.93;;
40204;SDS011;26963;42.666;23.366;2023-10-31T14:19:10;10.60;;;5.60;;
40204;SDS011;26963;42.666;23.366;2023-10-31T14:21:37;16.25;;;6.28;;
40204;SDS011;26963;42.666;23.366;2023-10-31T14:24:02;14.07;;;5.47;;
40204;SDS011;26963;42.666;23.366;2023-10-31T14:26:29;16.25;;;5.80;;
40204;SDS011;26963;42.666;23.366;2023-10-31T14:28:55;12.38;;;5.72;;